Time;durP1;ratioP1;P1;durP2;ratioP2;P2;SDS_P1;SDS_P2;PMS_P1;PMS_P2;Temp;Humidity;BMP_temperature;BMP_pressure;BME280_temperature;BME280_humidity;BME280_pressure;Samples;Min_cycle;Max_cycle;Signal;HPM_P1;HPM_P2
2021/09/25 00:00:52;;;;;;;10.17;5.53;;;16.30;99.90;;;;;;5087554;28;20556;-70
2021/09/25 00:03:19;;;;;;;4.63;3.53;;;16.30;99.90;;;;;;5078599;28;20489;-68
2021/09/25 00:05:46;;;;;;;10.10;4.23;;;16.30;99.90;;;;;;5075610;28;20872;-68
2021/09/25 00:08:16;;;;;;;6.30;3.43;;;16.20;99.90;;;;;;5080963;28;20470;-68
2021/09/25 00:10:44;;;;;;;5.23;4.13;;;16.30;99.90;;;;;;5080392;28;20501;-69
2021/09/25 00:13:11;;;;;;;7.23;3.93;;;16.30;99.90;;;;;;5080859;28;20514;-68
2021/09/25 00:15:39;;;;;;;5.80;4.10;;;16.20;99.90;;;;;;5078636;28;20522;-68
2021/09/25 00:18:07;;;;;;;5.50;3.43;;;16.20;99.90;;;;;;5082510;28;20981;-70
2021/09/25 00:20:35;;;;;;;8.67;3.60;;;16.10;99.90;;;;;;5084870;28;20556;-69
2021/09/25 00:23:03;;;;;;;4.80;3.73;;;16.00;99.90;;;;;;5078572;28;20541;-73
2021/09/25 00:25:30;;;;;;;12.57;3.60;;;16.10;99.90;;;;;;5081383;28;20487;-69
2021/09/25 00:27:57;;;;;;;6.50;3.60;;;16.00;99.90;;;;;;5081972;28;20539;-72
2021/09/25 00:30:25;;;;;;;12.03;3.50;;;16.00;99.90;;;;;;5081554;28;20473;-71
2021/09/25 00:32:54;;;;;;;6.07;4.20;;;16.00;99.90;;;;;;5100013;28;21091;-70
2021/09/25 00:35:21;;;;;;;9.33;3.97;;;16.00;99.90;;;;;;5082999;28;20441;-68
2021/09/25 00:37:47;;;;;;;10.40;3.17;;;15.80;99.90;;;;;;5089720;28;20537;-68
2021/09/25 00:40:18;;;;;;;4.10;3.17;;;15.90;99.90;;;;;;5073577;28;20483;-68
2021/09/25 00:42:46;;;;;;;4.47;3.10;;;15.80;99.90;;;;;;5080827;28;21009;-69
2021/09/25 00:45:14;;;;;;;4.87;3.37;;;16.00;99.90;;;;;;5080248;28;20530;-70
2021/09/25 00:47:41;;;;;;;8.70;3.57;;;15.90;99.90;;;;;;5082904;28;20446;-68
2021/09/25 00:50:10;;;;;;;5.73;3.67;;;15.70;99.90;;;;;;5077705;28;20564;-68
2021/09/25 00:52:37;;;;;;;6.37;3.57;;;15.70;99.90;;;;;;5075448;28;20589;-71
2021/09/25 00:55:05;;;;;;;4.87;3.13;;;15.60;99.90;;;;;;5081852;28;20538;-71
2021/09/25 00:57:33;;;;;;;5.57;3.93;;;15.80;99.90;;;;;;5076628;28;20450;-69
2021/09/25 01:00:01;;;;;;;7.50;3.27;;;15.80;99.90;;;;;;5079134;28;20543;-69
2021/09/25 01:02:30;;;;;;;5.93;4.03;;;15.80;99.90;;;;;;5075757;28;20542;-72
2021/09/25 01:04:57;;;;;;;5.23;3.80;;;15.80;99.90;;;;;;5076157;28;20558;-69
2021/09/25 01:07:25;;;;;;;4.33;2.97;;;15.90;99.90;;;;;;5083296;28;21017;-69
2021/09/25 01:09:52;;;;;;;5.27;2.90;;;15.80;99.90;;;;;;5078049;28;20542;-68
2021/09/25 01:12:19;;;;;;;6.40;3.37;;;15.70;99.90;;;;;;5088536;28;20550;-69
2021/09/25 01:14:46;;;;;;;5.67;3.30;;;15.70;99.90;;;;;;5083265;28;20550;-68
2021/09/25 01:17:14;;;;;;;4.50;2.97;;;15.60;99.90;;;;;;5077759;28;20450;-68
2021/09/25 01:19:43;;;;;;;4.17;3.00;;;15.60;99.90;;;;;;5078123;28;20576;-68
2021/09/25 01:22:12;;;;;;;7.30;5.00;;;15.40;99.90;;;;;;5076751;28;20451;-69
2021/09/25 01:24:39;;;;;;;4.30;3.27;;;15.50;99.90;;;;;;5086014;28;20555;-70
2021/09/25 01:27:06;;;;;;;6.03;3.70;;;15.50;99.90;;;;;;5080971;28;20552;-68
2021/09/25 01:29:34;;;;;;;5.57;3.10;;;15.40;99.90;;;;;;5081632;28;20874;-69
2021/09/25 01:32:02;;;;;;;9.83;3.43;;;15.30;99.90;;;;;;5077956;28;20501;-69
2021/09/25 01:34:30;;;;;;;8.03;4.90;;;15.40;99.90;;;;;;5075647;28;20510;-68
2021/09/25 01:36:57;;;;;;;6.00;3.50;;;15.40;99.90;;;;;;5082987;28;20450;-69
2021/09/25 01:39:25;;;;;;;7.17;4.47;;;15.40;99.90;;;;;;5083248;28;20920;-69
2021/09/25 01:41:52;;;;;;;11.63;5.27;;;15.50;99.90;;;;;;5081583;28;20873;-69
2021/09/25 01:44:19;;;;;;;18.50;4.43;;;15.50;99.90;;;;;;5083097;28;20446;-69
2021/09/25 01:46:47;;;;;;;7.33;3.63;;;15.50;99.90;;;;;;5078119;28;20451;-70
2021/09/25 01:49:14;;;;;;;7.67;4.50;;;15.50;99.90;;;;;;5082451;28;20570;-70
2021/09/25 01:51:41;;;;;;;6.07;3.30;;;15.50;99.90;;;;;;5078932;28;20562;-68
2021/09/25 01:54:08;;;;;;;8.30;4.67;;;15.60;99.90;;;;;;5085831;28;20492;-72
2021/09/25 01:56:36;;;;;;;8.17;4.30;;;15.70;99.90;;;;;;5076734;28;20604;-68
2021/09/25 01:59:03;;;;;;;7.20;5.03;;;15.80;99.90;;;;;;5074879;28;20485;-70
2021/09/25 02:01:30;;;;;;;7.33;4.10;;;15.80;99.90;;;;;;5080070;28;20485;-69
2021/09/25 02:03:57;;;;;;;5.27;4.13;;;15.80;99.90;;;;;;5079993;28;20523;-69
2021/09/25 02:06:25;;;;;;;7.50;3.77;;;15.90;99.90;;;;;;5079675;28;20526;-69
2021/09/25 02:08:52;;;;;;;10.60;5.20;;;15.90;99.90;;;;;;5082749;28;20437;-72
2021/09/25 02:11:19;;;;;;;4.47;2.97;;;16.00;99.90;;;;;;5076790;28;20465;-72
2021/09/25 02:13:48;;;;;;;7.00;3.47;;;16.00;99.90;;;;;;5084822;28;20540;-70
2021/09/25 02:16:15;;;;;;;5.83;3.90;;;16.00;99.90;;;;;;5083107;28;20461;-69
2021/09/25 02:18:42;;;;;;;7.80;4.10;;;16.00;99.90;;;;;;5077185;28;20439;-73
2021/09/25 02:21:10;;;;;;;7.30;4.47;;;16.00;99.90;;;;;;5078420;28;20519;-70
2021/09/25 02:23:37;;;;;;;7.13;4.53;;;16.00;99.90;;;;;;5077627;28;20532;-70
2021/09/25 02:26:06;;;;;;;4.30;2.80;;;16.00;99.90;;;;;;5081339;28;20442;-68
2021/09/25 02:28:33;;;;;;;7.13;5.00;;;16.10;99.90;;;;;;5074641;28;21009;-73
2021/09/25 02:31:02;;;;;;;9.43;4.10;;;16.10;99.90;;;;;;5072113;28;20910;-69
2021/09/25 02:33:29;;;;;;;4.70;2.97;;;16.00;99.90;;;;;;5080774;28;20890;-69
2021/09/25 02:35:57;;;;;;;12.03;3.57;;;16.10;99.90;;;;;;5073652;28;20503;-69
2021/09/25 02:38:24;;;;;;;8.80;5.13;;;16.20;99.90;;;;;;5084982;28;20476;-69
2021/09/25 02:40:51;;;;;;;7.13;3.73;;;16.20;99.90;;;;;;5082340;28;20560;-69
2021/09/25 02:43:17;;;;;;;7.10;3.93;;;16.20;99.90;;;;;;5078396;28;20481;-70
2021/09/25 02:45:45;;;;;;;6.10;4.40;;;16.10;99.90;;;;;;5072363;28;20499;-68
2021/09/25 02:48:13;;;;;;;6.97;5.13;;;16.20;99.90;;;;;;5082553;28;21180;-69
2021/09/25 02:50:40;;;;;;;4.50;3.30;;;16.20;99.90;;;;;;5081167;28;20577;-73
2021/09/25 02:53:07;;;;;;;6.70;4.10;;;16.10;99.90;;;;;;5077053;28;20551;-70
2021/09/25 02:55:34;;;;;;;6.23;3.30;;;16.00;99.90;;;;;;5084151;28;20472;-70
2021/09/25 02:58:01;;;;;;;7.90;4.10;;;16.10;99.90;;;;;;5077917;28;20542;-68
2021/09/25 03:00:28;;;;;;;5.77;3.43;;;16.10;99.90;;;;;;5081127;28;20461;-69
2021/09/25 03:02:55;;;;;;;7.77;4.23;;;16.10;99.90;;;;;;5084738;28;20589;-69
2021/09/25 03:05:23;;;;;;;8.53;6.00;;;16.20;99.90;;;;;;5074077;28;20535;-68
2021/09/25 03:07:50;;;;;;;12.07;4.03;;;16.30;99.90;;;;;;5074254;28;20464;-72
2021/09/25 03:10:17;;;;;;;7.10;3.20;;;16.20;99.90;;;;;;5078413;28;20505;-69
2021/09/25 03:12:46;;;;;;;4.43;3.17;;;16.30;99.90;;;;;;5083095;28;20830;-69
2021/09/25 03:15:13;;;;;;;4.30;3.10;;;16.20;99.90;;;;;;5080442;28;20853;-68
2021/09/25 03:17:40;;;;;;;6.07;3.40;;;16.30;99.90;;;;;;5079881;28;20541;-68
2021/09/25 03:20:09;;;;;;;6.67;3.87;;;16.30;99.90;;;;;;5086399;28;20477;-68
2021/09/25 03:22:38;;;;;;;8.07;4.17;;;16.20;99.90;;;;;;5080636;28;20486;-68
2021/09/25 03:25:08;;;;;;;6.53;3.80;;;16.20;99.90;;;;;;5080681;28;21193;-68
2021/09/25 03:27:35;;;;;;;3.97;2.40;;;16.20;99.90;;;;;;5088020;28;20957;-69
2021/09/25 03:30:02;;;;;;;6.63;3.27;;;16.20;99.90;;;;;;5083736;28;20582;-68
2021/09/25 03:32:29;;;;;;;4.63;3.63;;;16.20;99.90;;;;;;5087326;28;20556;-69
2021/09/25 03:34:56;;;;;;;6.43;3.20;;;16.30;99.90;;;;;;5085130;28;20485;-69
2021/09/25 03:37:23;;;;;;;6.70;3.90;;;16.30;99.90;;;;;;5074938;28;20542;-69
2021/09/25 03:39:51;;;;;;;6.90;2.90;;;16.20;99.90;;;;;;5072083;28;20517;-69
2021/09/25 03:42:18;;;;;;;8.20;3.40;;;16.30;99.90;;;;;;5074582;28;20485;-71
2021/09/25 03:44:45;;;;;;;5.97;4.13;;;16.20;99.90;;;;;;5077093;28;20570;-70
2021/09/25 03:47:12;;;;;;;5.00;3.50;;;16.20;99.90;;;;;;5080124;28;20450;-70
2021/09/25 03:49:41;;;;;;;5.83;3.23;;;16.20;99.90;;;;;;5079915;28;20604;-70
2021/09/25 03:52:09;;;;;;;4.33;3.37;;;16.30;99.90;;;;;;5072723;28;20537;-69
2021/09/25 03:54:36;;;;;;;4.93;2.90;;;16.20;99.90;;;;;;5077022;28;20446;-69
2021/09/25 03:57:04;;;;;;;6.30;4.50;;;16.30;99.90;;;;;;5079911;28;20829;-67
2021/09/25 03:59:31;;;;;;;5.40;3.63;;;16.30;99.90;;;;;;5082486;28;20477;-69
2021/09/25 04:01:58;;;;;;;5.60;3.80;;;16.30;99.90;;;;;;5073080;28;20984;-69
2021/09/25 04:04:25;;;;;;;4.20;2.43;;;16.30;99.90;;;;;;5088917;28;20516;-70
2021/09/25 04:06:52;;;;;;;3.40;2.40;;;16.20;99.90;;;;;;5080647;28;20450;-69
2021/09/25 04:09:19;;;;;;;8.90;4.00;;;16.30;99.90;;;;;;5080600;28;20560;-69
2021/09/25 04:11:49;;;;;;;8.30;5.13;;;16.40;99.90;;;;;;5078203;28;20994;-70
2021/09/25 04:14:18;;;;;;;5.33;3.00;;;16.40;99.90;;;;;;5077865;28;20926;-69
2021/09/25 04:16:45;;;;;;;4.47;2.60;;;16.40;99.90;;;;;;5077678;28;20448;-69
2021/09/25 04:19:12;;;;;;;5.07;2.90;;;16.40;99.90;;;;;;5082698;28;20517;-71
2021/09/25 04:21:39;;;;;;;6.20;4.00;;;16.30;99.90;;;;;;5084764;28;20532;-69
2021/09/25 04:24:06;;;;;;;4.17;3.27;;;16.30;99.90;;;;;;5091859;28;20437;-69
2021/09/25 04:26:33;;;;;;;2.33;2.10;;;16.30;99.90;;;;;;5085543;28;20500;-70
2021/09/25 04:29:00;;;;;;;3.13;2.20;;;16.30;99.90;;;;;;5082218;28;20481;-72
2021/09/25 04:31:29;;;;;;;4.57;3.40;;;16.20;99.90;;;;;;5082597;28;20485;-70
2021/09/25 04:33:56;;;;;;;3.60;2.50;;;16.20;99.90;;;;;;5082003;28;20509;-70
2021/09/25 04:36:24;;;;;;;3.73;3.33;;;16.40;99.90;;;;;;5083932;28;20484;-70
2021/09/25 04:38:51;;;;;;;6.53;3.40;;;16.40;99.90;;;;;;5088214;28;20489;-69
2021/09/25 04:41:17;;;;;;;3.40;2.30;;;16.40;99.90;;;;;;5075556;28;21154;-69
2021/09/25 04:43:44;;;;;;;4.20;2.20;;;16.30;99.90;;;;;;5083545;28;20536;-70
2021/09/25 04:46:12;;;;;;;6.47;3.87;;;16.30;99.90;;;;;;5088971;28;20549;-68
2021/09/25 04:48:40;;;;;;;4.17;2.47;;;16.30;99.90;;;;;;5080715;28;20524;-69
2021/09/25 04:51:07;;;;;;;5.20;2.90;;;16.30;99.90;;;;;;5075942;28;20873;-68
2021/09/25 04:53:34;;;;;;;7.20;3.80;;;16.30;99.90;;;;;;5076651;28;20570;-68
2021/09/25 04:56:02;;;;;;;8.73;3.40;;;16.40;99.90;;;;;;5083281;28;20454;-68
2021/09/25 04:58:29;;;;;;;5.57;3.30;;;16.50;99.90;;;;;;5079267;28;20482;-68
2021/09/25 05:00:56;;;;;;;4.67;3.00;;;16.40;99.90;;;;;;5079035;28;20478;-68
2021/09/25 05:03:23;;;;;;;4.83;2.60;;;16.40;99.90;;;;;;5072247;28;20490;-70
2021/09/25 05:05:52;;;;;;;5.17;3.00;;;16.40;99.90;;;;;;5080574;28;20939;-69
2021/09/25 05:08:19;;;;;;;5.00;2.50;;;16.50;99.90;;;;;;5080293;28;20477;-72
2021/09/25 05:10:46;;;;;;;6.63;3.50;;;16.50;99.90;;;;;;5083142;28;20492;-70
2021/09/25 05:13:13;;;;;;;7.20;3.07;;;16.50;99.90;;;;;;5089223;28;20510;-69
2021/09/25 05:15:40;;;;;;;5.70;3.00;;;16.30;99.90;;;;;;5084926;28;20541;-70
2021/09/25 05:18:06;;;;;;;7.30;3.20;;;16.30;99.90;;;;;;5081156;28;20489;-69
2021/09/25 05:20:33;;;;;;;5.30;3.27;;;16.30;99.90;;;;;;5074990;28;20571;-70
2021/09/25 05:23:02;;;;;;;5.20;3.00;;;16.30;99.90;;;;;;5081378;28;21809;-71
2021/09/25 05:25:29;;;;;;;4.30;2.40;;;16.20;99.90;;;;;;5080399;28;20442;-69
2021/09/25 05:27:56;;;;;;;5.20;3.40;;;16.30;99.90;;;;;;5082155;28;20515;-69
2021/09/25 05:30:23;;;;;;;6.33;2.50;;;16.30;99.90;;;;;;5080752;28;20639;-69
2021/09/25 05:32:49;;;;;;;5.07;3.00;;;16.20;99.90;;;;;;5081208;28;20479;-71
2021/09/25 05:35:16;;;;;;;5.00;2.73;;;16.20;99.90;;;;;;5079319;28;21007;-67
2021/09/25 05:37:43;;;;;;;5.73;3.10;;;16.20;99.90;;;;;;5084557;28;20446;-70
2021/09/25 05:40:13;;;;;;;6.33;4.60;;;16.20;99.90;;;;;;5078745;28;20493;-72
2021/09/25 05:42:40;;;;;;;10.63;4.10;;;16.20;99.90;;;;;;5079507;28;20980;-69
2021/09/25 05:45:08;;;;;;;5.43;3.50;;;16.40;99.90;;;;;;5079113;28;20480;-69
2021/09/25 05:47:35;;;;;;;5.13;2.90;;;16.50;99.90;;;;;;5074959;28;20544;-71
2021/09/25 05:50:02;;;;;;;6.97;3.63;;;16.50;99.90;;;;;;5079541;28;20510;-72
2021/09/25 05:52:29;;;;;;;7.60;4.40;;;16.60;99.90;;;;;;5076892;28;20450;-68
2021/09/25 05:54:56;;;;;;;3.20;2.47;;;16.60;99.90;;;;;;5078626;28;20495;-68
2021/09/25 05:57:24;;;;;;;4.73;2.53;;;16.50;99.90;;;;;;5081609;28;20484;-68
2021/09/25 05:59:51;;;;;;;2.93;2.60;;;16.50;99.90;;;;;;5082621;28;20506;-68
2021/09/25 06:02:18;;;;;;;2.57;1.90;;;16.60;99.90;;;;;;5081425;28;20450;-69
2021/09/25 06:04:45;;;;;;;4.27;3.23;;;16.50;99.90;;;;;;5081176;28;20528;-67
2021/09/25 06:07:13;;;;;;;2.73;1.80;;;16.60;99.90;;;;;;5080429;28;20454;-69
2021/09/25 06:09:41;;;;;;;7.83;2.60;;;16.60;99.90;;;;;;5082390;28;20482;-69
2021/09/25 06:12:08;;;;;;;5.40;4.10;;;16.80;99.90;;;;;;5071899;28;20522;-69
2021/09/25 06:14:38;;;;;;;4.63;2.67;;;16.80;99.90;;;;;;5079230;28;20478;-68
2021/09/25 06:17:06;;;;;;;2.93;2.03;;;16.90;99.90;;;;;;5084268;28;20598;-70
2021/09/25 06:19:32;;;;;;;5.40;2.43;;;16.90;99.90;;;;;;5082134;28;20937;-68
2021/09/25 06:21:59;;;;;;;9.10;3.00;;;16.90;99.90;;;;;;5084886;28;20557;-68
2021/09/25 06:24:27;;;;;;;5.57;3.30;;;16.90;99.90;;;;;;5082864;28;21091;-69
2021/09/25 06:26:54;;;;;;;11.40;7.53;;;17.00;99.90;;;;;;5081066;28;20545;-70
2021/09/25 06:29:20;;;;;;;8.57;5.20;;;17.00;99.90;;;;;;5078727;28;20562;-71
2021/09/25 06:31:49;;;;;;;14.20;4.97;;;16.80;99.90;;;;;;5081666;28;20461;-69
2021/09/25 06:34:16;;;;;;;5.80;3.97;;;16.90;99.90;;;;;;5069962;28;20618;-70
2021/09/25 06:36:43;;;;;;;2.83;2.47;;;16.80;99.90;;;;;;5084904;28;20450;-70
2021/09/25 06:39:10;;;;;;;4.13;3.03;;;16.80;99.90;;;;;;5081266;28;20568;-68
2021/09/25 06:41:37;;;;;;;4.00;3.10;;;16.80;99.90;;;;;;5080773;28;20461;-70
2021/09/25 06:44:05;;;;;;;4.80;2.83;;;16.80;99.90;;;;;;5070394;28;20550;-69
2021/09/25 06:46:32;;;;;;;5.60;3.10;;;17.10;99.90;;;;;;5078791;28;20464;-70
2021/09/25 06:49:00;;;;;;;5.97;3.03;;;17.00;99.90;;;;;;5080338;28;20550;-69
2021/09/25 06:51:28;;;;;;;4.97;2.50;;;16.90;99.90;;;;;;5076018;28;20539;-69
2021/09/25 06:53:55;;;;;;;4.93;3.70;;;16.90;99.90;;;;;;5076343;28;20469;-69
2021/09/25 06:56:23;;;;;;;8.40;3.07;;;17.00;99.90;;;;;;5076581;28;20446;-71
2021/09/25 06:58:50;;;;;;;4.27;2.70;;;16.80;99.90;;;;;;5080003;28;20454;-68
2021/09/25 07:01:17;;;;;;;5.67;2.83;;;17.00;99.90;;;;;;5078893;28;20598;-70
2021/09/25 07:03:44;;;;;;;3.60;2.50;;;17.00;99.90;;;;;;5081990;28;20549;-71
2021/09/25 07:06:13;;;;;;;3.20;2.90;;;17.10;99.90;;;;;;5081017;28;20445;-69
2021/09/25 07:08:39;;;;;;;4.10;3.20;;;17.20;99.90;;;;;;5084497;28;20529;-69
2021/09/25 07:11:06;;;;;;;8.60;3.53;;;17.20;99.90;;;;;;5086950;28;20473;-70
2021/09/25 07:13:34;;;;;;;4.50;2.90;;;17.20;99.90;;;;;;5077845;28;20569;-69
2021/09/25 07:16:01;;;;;;;5.10;2.77;;;17.20;99.90;;;;;;5080400;28;20551;-69
2021/09/25 07:18:28;;;;;;;3.90;2.73;;;17.20;99.90;;;;;;5076433;28;20994;-69
2021/09/25 07:20:55;;;;;;;3.47;2.90;;;17.30;99.90;;;;;;5072407;28;20572;-71
2021/09/25 07:23:23;;;;;;;6.70;4.10;;;17.30;99.90;;;;;;5075879;28;20647;-69
2021/09/25 07:25:51;;;;;;;7.67;3.43;;;17.40;99.90;;;;;;5070662;28;20824;-71
2021/09/25 07:28:18;;;;;;;4.67;2.50;;;17.50;99.90;;;;;;5080467;28;20545;-69
2021/09/25 07:30:48;;;;;;;4.30;3.20;;;17.50;99.90;;;;;;5087503;28;20477;-72
2021/09/25 07:33:16;;;;;;;4.77;3.23;;;17.50;99.90;;;;;;5093396;28;20985;-70
2021/09/25 07:35:43;;;;;;;6.70;3.07;;;17.50;99.90;;;;;;5091480;28;20467;-69
2021/09/25 07:38:10;;;;;;;6.77;3.57;;;17.50;99.90;;;;;;5081011;28;20461;-68
2021/09/25 07:40:38;;;;;;;6.70;3.20;;;17.50;99.90;;;;;;5080815;28;20577;-69
2021/09/25 07:43:05;;;;;;;4.80;3.20;;;17.50;99.90;;;;;;5082147;28;20481;-71
2021/09/25 07:45:33;;;;;;;4.77;2.73;;;17.50;99.90;;;;;;5077099;28;20451;-71
2021/09/25 07:48:00;;;;;;;3.30;2.07;;;17.60;99.90;;;;;;5081774;28;20473;-72
2021/09/25 07:50:26;;;;;;;4.63;2.90;;;17.60;99.90;;;;;;5085387;28;20477;-68
2021/09/25 07:52:56;;;;;;;5.47;3.23;;;17.70;99.90;;;;;;5089630;28;20987;-71
2021/09/25 07:55:24;;;;;;;6.57;3.07;;;17.80;99.90;;;;;;5086718;28;20489;-70
2021/09/25 07:57:52;;;;;;;4.20;2.80;;;17.80;99.90;;;;;;5083672;28;21009;-72
2021/09/25 08:00:19;;;;;;;3.87;2.97;;;17.70;99.90;;;;;;5083692;28;20481;-69
2021/09/25 08:02:46;;;;;;;4.90;3.40;;;17.70;99.90;;;;;;5077115;28;20450;-70
2021/09/25 08:05:15;;;;;;;6.00;3.37;;;17.80;99.90;;;;;;5085961;28;20473;-69
2021/09/25 08:07:42;;;;;;;8.37;3.30;;;17.80;99.90;;;;;;5079344;28;20462;-71
2021/09/25 08:10:11;;;;;;;7.77;3.33;;;18.00;99.90;;;;;;5078431;28;20611;-69
2021/09/25 08:12:39;;;;;;;7.63;3.90;;;18.00;99.90;;;;;;5081750;28;20472;-69
2021/09/25 08:15:10;;;;;;;4.97;3.33;;;18.10;99.90;;;;;;5085670;28;20560;-69
2021/09/25 08:17:37;;;;;;;4.77;2.97;;;18.10;99.90;;;;;;5085173;28;20510;-71
2021/09/25 08:20:07;;;;;;;6.03;4.10;;;18.10;99.90;;;;;;5087806;28;20482;-69
2021/09/25 08:22:34;;;;;;;8.77;3.53;;;18.20;99.90;;;;;;5088442;28;20469;-68
2021/09/25 08:25:01;;;;;;;8.70;4.83;;;18.10;99.90;;;;;;5094984;28;20524;-69
2021/09/25 08:27:28;;;;;;;6.00;3.20;;;18.20;99.90;;;;;;5095462;28;20503;-69
2021/09/25 08:29:55;;;;;;;5.47;3.50;;;18.30;99.90;;;;;;5085352;28;20570;-69
2021/09/25 08:32:23;;;;;;;4.63;4.17;;;18.30;99.90;;;;;;5088372;28;21015;-69
2021/09/25 08:34:50;;;;;;;3.93;2.80;;;18.10;99.90;;;;;;5076048;28;20474;-69
2021/09/25 08:37:17;;;;;;;4.13;2.90;;;18.20;99.90;;;;;;5082501;28;20897;-71
2021/09/25 08:39:44;;;;;;;5.70;3.80;;;18.40;99.90;;;;;;5073909;28;20583;-70
2021/09/25 08:42:13;;;;;;;6.80;3.73;;;18.40;99.90;;;;;;5084626;28;20607;-69
2021/09/25 08:44:43;;;;;;;6.10;4.23;;;18.60;99.90;;;;;;5075931;28;20525;-68
2021/09/25 08:47:10;;;;;;;8.30;3.80;;;18.70;99.90;;;;;;5088866;28;20492;-70
2021/09/25 08:49:38;;;;;;;8.83;3.57;;;18.60;99.90;;;;;;5080808;28;20477;-68
2021/09/25 08:52:06;;;;;;;4.90;4.03;;;18.50;99.90;;;;;;5077341;28;20515;-69
2021/09/25 08:54:33;;;;;;;6.47;3.17;;;18.60;99.90;;;;;;5074213;28;20745;-70
2021/09/25 08:57:00;;;;;;;8.33;3.03;;;18.80;99.90;;;;;;5078782;28;20843;-68
2021/09/25 08:59:27;;;;;;;7.93;3.17;;;18.90;99.90;;;;;;5070772;28;20571;-70
2021/09/25 09:01:53;;;;;;;7.50;4.30;;;18.90;99.90;;;;;;5073620;28;20554;-68
2021/09/25 09:04:21;;;;;;;5.90;4.00;;;19.00;99.90;;;;;;5082276;28;20493;-69
2021/09/25 09:06:50;;;;;;;8.10;4.20;;;18.90;99.90;;;;;;5083376;28;20478;-69
2021/09/25 09:09:17;;;;;;;6.97;4.00;;;18.90;99.90;;;;;;5076369;28;20473;-69
2021/09/25 09:11:46;;;;;;;7.27;3.50;;;19.00;99.90;;;;;;5078043;28;20457;-68
2021/09/25 09:14:14;;;;;;;5.23;3.43;;;19.00;99.90;;;;;;5074895;28;20469;-71
2021/09/25 09:16:41;;;;;;;6.40;2.60;;;19.10;99.90;;;;;;5069807;28;20519;-70
2021/09/25 09:19:08;;;;;;;9.60;3.93;;;19.20;99.90;;;;;;5071528;28;20559;-69
2021/09/25 09:21:36;;;;;;;4.60;3.43;;;19.20;99.90;;;;;;5080610;28;20970;-70
2021/09/25 09:24:07;;;;;;;6.40;3.40;;;19.10;99.90;;;;;;5076902;28;20477;-70
2021/09/25 09:26:35;;;;;;;7.40;3.10;;;19.10;99.90;;;;;;5078404;28;20527;-68
2021/09/25 09:29:05;;;;;;;9.80;3.40;;;19.20;99.90;;;;;;5077424;28;20565;-71
2021/09/25 09:31:33;;;;;;;5.63;3.30;;;19.30;99.90;;;;;;5074255;28;20493;-69
2021/09/25 09:34:02;;;;;;;4.10;3.33;;;19.30;99.90;;;;;;5070661;28;20996;-70
2021/09/25 09:36:33;;;;;;;2.73;2.30;;;19.20;99.90;;;;;;5073205;28;21024;-70
2021/09/25 09:39:10;;;;;;;5.10;3.17;;;19.20;99.90;;;;;;5066921;28;20860;-69
2021/09/25 09:41:38;;;;;;;6.60;3.40;;;19.20;99.90;;;;;;5069541;28;20521;-68
2021/09/25 09:44:08;;;;;;;4.30;2.50;;;19.30;99.90;;;;;;5068482;28;20486;-68
2021/09/25 09:46:39;;;;;;;5.33;3.37;;;19.30;99.90;;;;;;5074482;28;20455;-69
2021/09/25 09:49:07;;;;;;;4.20;3.27;;;19.40;99.90;;;;;;5075825;28;20461;-66
2021/09/25 09:51:40;;;;;;;4.90;2.77;;;19.30;99.90;;;;;;5077309;28;20954;-68
2021/09/25 09:54:13;;;;;;;4.50;3.07;;;19.50;99.90;;;;;;5075072;28;20496;-69
2021/09/25 09:56:41;;;;;;;3.60;2.60;;;19.60;99.90;;;;;;5067929;28;20528;-69
2021/09/25 09:59:09;;;;;;;5.03;3.10;;;19.90;99.90;;;;;;5073490;28;20510;-71
2021/09/25 10:01:38;;;;;;;3.40;2.80;;;20.00;99.90;;;;;;5071294;28;20827;-69
2021/09/25 10:04:06;;;;;;;5.17;3.47;;;20.00;99.90;;;;;;5080129;28;20503;-69
2021/09/25 10:06:36;;;;;;;4.87;3.03;;;20.10;99.90;;;;;;5078005;28;21924;-70
2021/09/25 10:09:07;;;;;;;2.60;2.03;;;20.20;99.90;;;;;;5086254;28;20557;-70
2021/09/25 10:11:37;;;;;;;2.63;2.40;;;20.20;99.90;;;;;;5083587;28;20484;-68
2021/09/25 10:14:06;;;;;;;3.30;3.00;;;20.30;99.90;;;;;;5087582;28;20527;-69
2021/09/25 10:16:35;;;;;;;5.03;2.43;;;20.30;99.90;;;;;;5079416;28;20445;-70
2021/09/25 10:19:03;;;;;;;4.00;3.10;;;20.40;99.90;;;;;;5082591;28;20709;-69
2021/09/25 10:21:33;;;;;;;4.30;3.30;;;20.40;99.90;;;;;;5081629;28;20818;-72
2021/09/25 10:24:05;;;;;;;5.50;2.40;;;20.50;99.90;;;;;;5085633;28;20477;-69
2021/09/25 10:26:33;;;;;;;5.30;2.80;;;20.60;99.90;;;;;;5086492;28;20529;-69
2021/09/25 10:29:04;;;;;;;3.67;2.63;;;20.60;99.90;;;;;;5083079;28;20485;-69
2021/09/25 10:31:31;;;;;;;4.67;2.80;;;20.50;99.90;;;;;;5086189;28;20481;-69
2021/09/25 10:34:08;;;;;;;3.40;2.97;;;20.70;99.90;;;;;;5076048;28;20467;-71
2021/09/25 10:36:48;;;;;;;2.67;2.10;;;20.80;99.90;;;;;;5088349;28;20457;-68
2021/09/25 10:39:25;;;;;;;7.30;3.33;;;20.90;99.90;;;;;;5081104;28;20493;-68
2021/09/25 10:42:00;;;;;;;6.60;3.50;;;20.70;99.90;;;;;;5084781;28;20449;-72
2021/09/25 10:44:31;;;;;;;3.00;2.50;;;20.70;99.90;;;;;;5082623;28;21013;-69
2021/09/25 10:47:10;;;;;;;5.43;3.30;;;20.50;99.90;;;;;;5077106;28;20930;-69
2021/09/25 10:49:45;;;;;;;7.40;4.00;;;20.50;99.90;;;;;;5076080;28;20565;-69
2021/09/25 10:52:15;;;;;;;6.53;3.80;;;20.70;99.90;;;;;;5072235;28;20946;-71
2021/09/25 10:54:42;;;;;;;4.67;3.47;;;20.70;99.90;;;;;;5074829;28;20509;-69
2021/09/25 10:57:16;;;;;;;5.00;3.50;;;20.90;99.90;;;;;;5079007;28;20549;-70
2021/09/25 11:00:18;;;;;;;12.60;4.83;;;20.90;99.90;;;;;;5066691;28;20492;-70
2021/09/25 11:02:46;;;;;;;4.10;3.40;;;20.80;99.90;;;;;;5077073;28;20449;-70
2021/09/25 11:05:16;;;;;;;4.03;3.67;;;20.70;99.90;;;;;;5080155;28;20481;-69
2021/09/25 11:07:43;;;;;;;4.30;3.03;;;20.80;99.90;;;;;;5060962;28;20552;-69
2021/09/25 11:10:11;;;;;;;4.77;2.17;;;21.10;99.90;;;;;;5068745;28;20469;-70
2021/09/25 11:12:48;;;;;;;5.37;3.17;;;21.30;99.90;;;;;;5075620;28;20443;-68
2021/09/25 11:15:32;;;;;;;3.33;2.47;;;21.00;99.90;;;;;;5076108;28;20481;-68
2021/09/25 11:18:28;;;;;;;6.80;3.23;;;20.90;99.90;;;;;;5063513;28;20468;-68
2021/09/25 11:21:05;;;;;;;4.50;3.30;;;21.30;99.90;;;;;;5075170;28;20924;-69
2021/09/25 11:23:45;;;;;;;4.33;3.03;;;21.50;99.90;;;;;;5074118;28;20784;-71
2021/09/25 11:26:14;;;;;;;5.37;3.43;;;21.70;99.90;;;;;;5080835;28;20478;-71
2021/09/25 11:28:43;;;;;;;4.17;2.77;;;21.80;99.90;;;;;;5072856;28;20537;-67
2021/09/25 11:31:11;;;;;;;4.50;3.07;;;21.80;99.90;;;;;;5071455;28;20482;-69
2021/09/25 11:33:40;;;;;;;6.60;3.33;;;21.70;99.90;;;;;;5068229;28;20474;-70
2021/09/25 11:36:09;;;;;;;5.77;3.07;;;21.90;99.90;;;;;;5068119;28;20482;-68
2021/09/25 11:38:44;;;;;;;4.00;2.60;;;22.00;99.90;;;;;;5072019;28;20903;-68
2021/09/25 11:41:15;;;;;;;4.23;2.80;;;21.70;99.90;;;;;;5078010;28;20516;-69
2021/09/25 11:43:43;;;;;;;4.60;3.17;;;21.70;99.90;;;;;;5078347;28;20900;-67
2021/09/25 11:46:10;;;;;;;4.07;2.60;;;21.80;99.90;;;;;;5086958;28;20441;-69
2021/09/25 11:48:38;;;;;;;5.07;2.87;;;21.80;99.90;;;;;;5076676;28;20511;-71
2021/09/25 11:51:05;;;;;;;5.80;3.00;;;21.90;99.90;;;;;;5075560;28;20568;-68
2021/09/25 11:53:33;;;;;;;2.87;2.53;;;21.70;99.90;;;;;;5077618;28;20510;-67
2021/09/25 11:56:01;;;;;;;4.50;3.63;;;21.70;99.90;;;;;;5077168;28;20485;-67
2021/09/25 11:58:28;;;;;;;3.97;3.43;;;21.50;99.90;;;;;;5085756;28;20462;-71
2021/09/25 12:00:56;;;;;;;6.30;3.93;;;21.70;99.90;;;;;;5082172;28;20477;-68
2021/09/25 12:03:28;;;;;;;3.17;2.30;;;21.70;99.90;;;;;;5083778;28;20488;-69
2021/09/25 12:05:58;;;;;;;5.10;3.10;;;21.70;99.90;;;;;;5080691;28;20450;-67
2021/09/25 12:08:27;;;;;;;3.67;3.20;;;21.90;99.90;;;;;;5084978;28;20458;-72
2021/09/25 12:10:55;;;;;;;3.17;2.77;;;22.00;99.90;;;;;;5086981;28;20473;-69
2021/09/25 12:13:24;;;;;;;5.37;3.43;;;22.10;99.90;;;;;;5085653;28;20439;-69
2021/09/25 12:15:53;;;;;;;6.03;5.43;;;22.10;99.90;;;;;;5072999;28;20477;-68
2021/09/25 12:18:22;;;;;;;4.43;3.40;;;22.00;99.90;;;;;;5086070;28;20454;-70
2021/09/25 12:20:52;;;;;;;6.37;3.27;;;22.00;99.90;;;;;;5081823;28;21109;-69
2021/09/25 12:23:25;;;;;;;3.90;3.37;;;22.10;99.90;;;;;;5086082;28;20530;-68
2021/09/25 12:25:53;;;;;;;6.80;3.00;;;22.20;99.90;;;;;;5081955;28;20473;-68
2021/09/25 12:28:28;;;;;;;5.20;3.90;;;22.00;99.90;;;;;;5087667;28;20449;-70
2021/09/25 12:30:56;;;;;;;4.77;3.30;;;21.90;99.90;;;;;;5076465;28;20469;-69
2021/09/25 12:33:23;;;;;;;4.53;3.20;;;22.10;99.90;;;;;;5073265;28;20888;-70
2021/09/25 12:36:02;;;;;;;4.77;3.37;;;22.30;99.90;;;;;;5076761;28;20573;-68
2021/09/25 12:38:31;;;;;;;2.77;2.57;;;22.40;99.90;;;;;;5082836;28;20894;-72
2021/09/25 12:41:01;;;;;;;2.97;2.73;;;22.20;99.90;;;;;;5079612;28;20540;-72
2021/09/25 12:43:32;;;;;;;11.17;3.57;;;22.20;99.90;;;;;;5080650;28;20449;-66
2021/09/25 12:46:10;;;;;;;5.00;3.33;;;22.20;99.90;;;;;;5071307;28;20808;-70
2021/09/25 12:48:59;;;;;;;4.37;3.37;;;22.10;99.90;;;;;;5085029;28;20543;-70
2021/09/25 12:51:26;;;;;;;3.93;2.43;;;22.00;99.90;;;;;;5070278;28;20859;-68